createdAt,value
2019-01-12T00:00:51.092Z,20.20
2019-01-12T00:03:54.743Z,20.21
2019-01-12T00:06:58.176Z,20.17
2019-01-12T00:10:01.643Z,20.16
2019-01-12T00:13:06.218Z,20.15
2019-01-12T00:16:09.672Z,20.14
2019-01-12T00:19:13.182Z,20.15
2019-01-12T00:22:16.673Z,20.14
2019-01-12T00:25:20.173Z,20.15
2019-01-12T00:28:24.594Z,20.13
2019-01-12T00:31:28.085Z,20.15
2019-01-12T00:34:31.562Z,20.14
2019-01-12T00:37:35.093Z,20.13
2019-01-12T00:40:38.610Z,20.12
2019-01-12T00:43:42.112Z,20.11
2019-01-12T00:46:45.599Z,20.12
2019-01-12T00:49:50.174Z,20.11
2019-01-12T00:52:53.639Z,20.11
2019-01-12T00:55:57.127Z,20.10
2019-01-12T00:59:00.575Z,20.11
2019-01-12T01:02:04.023Z,20.09
2019-01-12T01:05:07.930Z,20.10
2019-01-12T01:08:11.437Z,20.09
2019-01-12T01:11:15.042Z,20.07
2019-01-12T01:14:18.527Z,20.08
2019-01-12T01:17:22.042Z,20.03
2019-01-12T01:20:27.590Z,20.03
2019-01-12T01:23:31.110Z,20.03
2019-01-12T01:26:34.597Z,20.04
2019-01-12T01:29:38.083Z,20.02
2019-01-12T01:32:41.520Z,20.02
2019-01-12T01:35:45.013Z,20.02
2019-01-12T01:38:48.592Z,20.00
2019-01-12T01:41:53.264Z,20.01
2019-01-12T01:44:56.727Z,20.02
2019-01-12T01:48:00.250Z,20.01
2019-01-12T01:51:03.848Z,20.00
2019-01-12T01:54:09.372Z,19.99
2019-01-12T01:57:12.902Z,20.00
2019-01-12T02:00:18.531Z,20.00
2019-01-12T02:03:22.041Z,20.00
2019-01-12T02:06:25.537Z,20.01
2019-01-12T02:09:29.024Z,20.01
2019-01-12T02:12:32.590Z,20.02
2019-01-12T02:15:36.138Z,20.00
2019-01-12T02:18:40.600Z,20.01
2019-01-12T02:21:44.081Z,20.01
2019-01-12T02:24:47.560Z,20.03
2019-01-12T02:27:51.168Z,20.01
2019-01-12T02:30:54.690Z,20.00
2019-01-12T02:33:59.199Z,20.01
2019-01-12T02:37:02.640Z,19.98
2019-01-12T02:40:06.127Z,19.99
2019-01-12T02:43:09.692Z,19.99
2019-01-12T02:46:13.209Z,19.99
2019-01-12T02:49:16.641Z,19.98
2019-01-12T02:52:20.121Z,19.98
2019-01-12T02:55:23.639Z,19.97
2019-01-12T02:58:27.179Z,19.96
2019-01-12T03:01:30.716Z,19.97
2019-01-12T03:04:34.147Z,19.96
2019-01-12T03:07:37.617Z,19.96
2019-01-12T03:10:41.213Z,19.95
2019-01-12T03:13:44.706Z,19.94
2019-01-12T03:16:48.218Z,19.94
2019-01-12T03:19:51.697Z,19.96
2019-01-12T03:22:55.126Z,19.93
2019-01-12T03:25:58.611Z,19.95
2019-01-12T03:29:02.098Z,19.96
2019-01-12T03:32:05.724Z,19.96
2019-01-12T03:35:09.196Z,19.96
2019-01-12T03:38:12.706Z,19.97
2019-01-12T03:41:16.148Z,19.96
2019-01-12T03:44:19.611Z,19.96
2019-01-12T03:47:23.117Z,19.97
2019-01-12T03:50:26.559Z,19.97
2019-01-12T03:53:30.159Z,19.97
2019-01-12T03:56:33.643Z,19.97
2019-01-12T03:59:37.207Z,19.95
2019-01-12T04:02:40.732Z,19.95
2019-01-12T04:05:45.238Z,19.95
2019-01-12T04:08:48.743Z,19.95
2019-01-12T04:11:52.255Z,19.96
2019-01-12T04:14:56.929Z,19.93
2019-01-12T04:18:00.509Z,19.95
2019-01-12T04:21:05.010Z,19.93
2019-01-12T04:24:08.496Z,19.93
2019-01-12T04:27:17.955Z,19.91
2019-01-12T04:30:21.435Z,19.93
2019-01-12T04:33:25.973Z,19.91
2019-01-12T04:36:35.503Z,19.93
2019-01-12T04:39:38.940Z,19.93
2019-01-12T04:42:42.413Z,19.93
2019-01-12T04:45:47.087Z,19.92
2019-01-12T04:48:50.552Z,19.93
2019-01-12T04:51:54.031Z,19.91
2019-01-12T04:54:57.633Z,19.92
2019-01-12T04:58:01.153Z,19.92
2019-01-12T05:01:04.635Z,19.91
2019-01-12T05:04:08.140Z,19.90
2019-01-12T05:07:11.579Z,19.91
2019-01-12T05:10:15.201Z,19.92
2019-01-12T05:13:18.842Z,19.92
2019-01-12T05:16:22.293Z,19.93
2019-01-12T05:19:25.755Z,19.93
2019-01-12T05:22:30.181Z,19.94
2019-01-12T05:25:33.671Z,19.95
2019-01-12T05:28:37.119Z,19.92
2019-01-12T05:31:40.584Z,19.92
2019-01-12T05:34:44.073Z,19.92
2019-01-12T05:37:47.574Z,19.90
2019-01-12T05:40:51.066Z,19.90
2019-01-12T05:43:54.611Z,19.91
2019-01-12T05:46:58.191Z,19.91
2019-01-12T05:50:01.694Z,19.92
2019-01-12T05:53:06.218Z,19.90
2019-01-12T05:56:10.745Z,19.90
2019-01-12T05:59:14.228Z,19.91
2019-01-12T06:02:17.995Z,19.90
2019-01-12T06:05:21.630Z,19.92
2019-01-12T06:08:25.074Z,19.92
2019-01-12T06:11:28.531Z,19.89
2019-01-12T06:14:31.982Z,19.91
2019-01-12T06:17:37.499Z,19.92
2019-01-12T06:20:42.011Z,19.91
2019-01-12T06:23:45.534Z,19.89
2019-01-12T06:26:49.035Z,19.91
2019-01-12T06:29:52.482Z,19.92
2019-01-12T06:32:58.052Z,19.91
2019-01-12T06:36:01.553Z,19.90
2019-01-12T06:39:08.832Z,19.90
2019-01-12T06:42:12.462Z,19.91
2019-01-12T06:45:16.559Z,19.89
2019-01-12T06:48:20.095Z,19.89
2019-01-12T06:51:23.565Z,19.88
2019-01-12T06:54:27.095Z,19.89
2019-01-12T06:57:30.575Z,19.88
2019-01-12T07:00:36.131Z,19.87
2019-01-12T07:03:39.735Z,19.89
2019-01-12T07:06:43.322Z,19.88
2019-01-12T07:09:46.777Z,19.87
2019-01-12T07:12:50.238Z,19.87
2019-01-12T07:15:53.885Z,19.87
2019-01-12T07:18:57.535Z,19.86
2019-01-12T07:22:01.030Z,19.87
2019-01-12T07:25:04.784Z,19.86
2019-01-12T07:28:08.250Z,19.86
2019-01-12T07:31:11.741Z,19.86
2019-01-12T07:34:15.248Z,19.88
2019-01-12T07:37:20.783Z,19.87
2019-01-12T07:40:24.285Z,19.87
2019-01-12T07:43:28.939Z,19.84
2019-01-12T07:46:32.448Z,19.86
2019-01-12T07:49:35.934Z,19.85
2019-01-12T07:52:39.378Z,19.85
2019-01-12T07:55:42.842Z,19.84
2019-01-12T07:58:52.508Z,19.84
2019-01-12T08:01:56.004Z,19.86
2019-01-12T08:05:00.551Z,19.84
2019-01-12T08:08:04.207Z,19.84
2019-01-12T08:11:07.699Z,19.85
2019-01-12T08:14:11.204Z,19.86
2019-01-12T08:17:14.697Z,19.85
2019-01-12T08:20:18.210Z,19.85
2019-01-12T08:23:21.698Z,19.85
2019-01-12T08:26:30.955Z,19.86
2019-01-12T08:29:30.423Z,19.87
2019-01-12T08:32:34.054Z,19.86
2019-01-12T08:35:37.554Z,19.86
2019-01-12T08:38:42.123Z,19.86
2019-01-12T08:41:45.589Z,19.88
2019-01-12T08:44:50.096Z,19.94
2019-01-12T08:47:53.657Z,19.96
2019-01-12T08:50:57.105Z,19.96
2019-01-12T08:54:00.642Z,19.97
2019-01-12T08:57:10.048Z,19.96
2019-01-12T09:00:18.423Z,19.98
2019-01-12T09:03:23.031Z,20.00
2019-01-12T09:06:26.480Z,19.99
2019-01-12T09:09:30.014Z,20.00
2019-01-12T09:12:33.501Z,19.99
2019-01-12T09:15:36.988Z,20.01
2019-01-12T09:18:40.486Z,20.00
2019-01-12T09:21:43.991Z,20.00
2019-01-12T09:24:47.561Z,20.02
2019-01-12T09:27:51.306Z,20.03
2019-01-12T09:30:57.994Z,19.97
2019-01-12T09:34:02.546Z,19.97
2019-01-12T09:37:06.095Z,19.97
2019-01-12T09:40:11.761Z,19.96
2019-01-12T09:43:15.351Z,19.97
2019-01-12T09:46:19.017Z,19.98
2019-01-12T09:49:22.670Z,19.95
2019-01-12T09:52:26.271Z,19.99
2019-01-12T09:55:29.890Z,20.00
2019-01-12T09:58:33.363Z,19.97
2019-01-12T10:01:36.884Z,19.97
2019-01-12T10:04:40.427Z,19.96
2019-01-12T10:07:45.076Z,19.96
2019-01-12T10:10:48.752Z,19.98
2019-01-12T10:13:52.438Z,20.06
2019-01-12T10:16:57.143Z,20.12
2019-01-12T10:20:00.770Z,20.10
2019-01-12T10:23:05.285Z,20.11
2019-01-12T10:26:08.770Z,20.13
2019-01-12T10:29:12.273Z,20.18
2019-01-12T10:32:16.794Z,20.17
2019-01-12T10:35:20.335Z,20.16
2019-01-12T10:38:23.899Z,20.14
2019-01-12T10:41:28.643Z,20.15
2019-01-12T10:44:33.258Z,20.13
2019-01-12T10:47:37.381Z,20.15
2019-01-12T10:50:40.880Z,20.13
2019-01-12T10:53:44.310Z,20.15
2019-01-12T10:56:48.956Z,20.09
2019-01-12T10:59:52.412Z,20.07
2019-01-12T11:02:55.935Z,20.05
2019-01-12T11:05:59.411Z,20.05
2019-01-12T11:09:10.075Z,20.02
2019-01-12T11:12:19.245Z,20.02
2019-01-12T11:15:22.922Z,20.01
2019-01-12T11:18:26.520Z,19.99
2019-01-12T11:21:30.012Z,20.02
2019-01-12T11:24:33.534Z,20.02
2019-01-12T11:27:37.016Z,20.01
2019-01-12T11:30:40.599Z,20.01
2019-01-12T11:33:44.241Z,20.01
2019-01-12T11:36:47.748Z,20.03
2019-01-12T11:39:51.245Z,20.13
2019-01-12T11:42:54.732Z,20.09
2019-01-12T11:45:58.248Z,20.08
2019-01-12T11:49:01.739Z,20.08
2019-01-12T11:52:05.287Z,20.11
2019-01-12T11:55:09.586Z,20.10
2019-01-12T11:58:13.065Z,20.11
2019-01-12T12:01:19.835Z,20.13
2019-01-12T12:04:23.429Z,20.15
2019-01-12T12:07:27.159Z,20.16
2019-01-12T12:10:30.864Z,20.15
2019-01-12T12:13:34.569Z,20.16
2019-01-12T12:16:38.149Z,20.18
2019-01-12T12:19:41.664Z,20.16
2019-01-12T12:22:45.282Z,20.17
2019-01-12T12:25:48.870Z,20.16
2019-01-12T12:28:54.958Z,20.17
2019-01-12T12:31:58.608Z,20.17
2019-01-12T12:35:03.476Z,20.15
2019-01-12T12:38:07.251Z,20.16
2019-01-12T12:41:10.872Z,20.18
2019-01-12T12:44:14.394Z,20.16
2019-01-12T12:47:17.933Z,20.19
2019-01-12T12:50:21.628Z,20.17
2019-01-12T12:53:26.396Z,20.21
2019-01-12T12:56:30.101Z,20.20
2019-01-12T12:59:34.737Z,20.14
2019-01-12T13:02:38.507Z,20.15
2019-01-12T13:05:42.349Z,20.17
2019-01-12T13:08:48.525Z,20.18
2019-01-12T13:11:51.397Z,20.17
2019-01-12T13:14:56.042Z,20.14
2019-01-12T13:17:59.539Z,20.14
2019-01-12T13:21:03.047Z,20.13
2019-01-12T13:24:06.547Z,20.13
2019-01-12T13:27:12.144Z,20.11
2019-01-12T13:30:17.944Z,20.13
2019-01-12T13:33:21.550Z,20.11
2019-01-12T13:36:25.056Z,20.15
2019-01-12T13:39:32.107Z,20.12
2019-01-12T13:42:33.910Z,20.18
2019-01-12T13:45:37.538Z,20.13
2019-01-12T13:48:41.001Z,20.12
2019-01-12T13:51:45.427Z,20.12
2019-01-12T13:54:48.941Z,20.13
2019-01-12T13:57:52.543Z,20.12
2019-01-12T14:00:56.162Z,20.17
2019-01-12T14:03:59.625Z,20.14
2019-01-12T14:07:04.168Z,20.15
2019-01-12T14:10:09.290Z,20.15
2019-01-12T14:13:12.741Z,20.18
2019-01-12T14:16:17.324Z,20.20
2019-01-12T14:19:20.818Z,20.21
2019-01-12T14:22:24.327Z,20.25
2019-01-12T14:25:28.955Z,20.27
2019-01-12T14:28:32.568Z,20.25
2019-01-12T14:31:36.175Z,20.26
2019-01-12T14:34:39.762Z,20.20
2019-01-12T14:37:44.414Z,20.28
2019-01-12T14:40:47.993Z,20.25
2019-01-12T14:43:51.496Z,20.22
2019-01-12T14:46:55.003Z,20.29
2019-01-12T14:49:58.515Z,20.33
2019-01-12T14:53:02.045Z,20.33
2019-01-12T14:56:05.480Z,20.31
2019-01-12T14:59:09.112Z,20.33
2019-01-12T15:02:13.753Z,20.29
2019-01-12T15:05:19.004Z,20.43
2019-01-12T15:08:22.469Z,20.49
2019-01-12T15:11:26.198Z,20.44
2019-01-12T15:14:29.788Z,20.59
2019-01-12T15:17:33.289Z,20.60
2019-01-12T15:20:36.777Z,20.66
2019-01-12T15:23:40.282Z,20.69
2019-01-12T15:26:43.804Z,20.78
2019-01-12T15:29:47.282Z,20.81
2019-01-12T15:32:50.787Z,20.85
2019-01-12T15:35:54.328Z,20.86
2019-01-12T15:39:01.635Z,20.89
2019-01-12T15:42:03.255Z,20.94
2019-01-12T15:45:09.306Z,20.96
2019-01-12T15:48:12.868Z,21.07
2019-01-12T15:51:16.572Z,21.09
2019-01-12T15:54:20.202Z,21.10
2019-01-12T15:57:23.653Z,21.10
2019-01-12T16:00:29.283Z,21.14
2019-01-12T16:03:32.758Z,21.20
2019-01-12T16:06:36.269Z,21.21
2019-01-12T16:09:39.761Z,21.28
2019-01-12T16:12:44.307Z,21.30
2019-01-12T16:15:47.783Z,21.31
2019-01-12T16:18:51.283Z,21.35
2019-01-12T16:21:54.795Z,21.39
2019-01-12T16:24:58.385Z,21.40
2019-01-12T16:28:02.126Z,21.45
2019-01-12T16:31:05.717Z,21.54
2019-01-12T16:34:09.219Z,21.56
2019-01-12T16:37:12.708Z,21.56
2019-01-12T16:40:18.359Z,21.56
2019-01-12T16:43:22.017Z,21.62
2019-01-12T16:46:25.468Z,21.64
2019-01-12T16:49:28.953Z,21.64
2019-01-12T16:52:32.472Z,21.68
2019-01-12T16:55:35.962Z,21.71
2019-01-12T16:58:39.524Z,21.71
2019-01-12T17:01:43.195Z,21.73
2019-01-12T17:04:46.693Z,21.75
2019-01-12T17:07:50.185Z,21.78
2019-01-12T17:10:53.671Z,21.84
2019-01-12T17:13:57.110Z,21.85
2019-01-12T17:17:01.730Z,21.84
2019-01-12T17:20:06.326Z,21.86
2019-01-12T17:23:09.929Z,21.88
2019-01-12T17:26:14.440Z,21.87
2019-01-12T17:29:19.023Z,21.90
2019-01-12T17:32:23.516Z,21.92
2019-01-12T17:35:27.289Z,21.95
2019-01-12T17:38:30.948Z,22.01
2019-01-12T17:41:34.420Z,22.01
2019-01-12T17:44:38.940Z,22.02
2019-01-12T17:47:42.471Z,22.01
2019-01-12T17:50:46.040Z,22.03
2019-01-12T17:53:49.649Z,22.05
2019-01-12T17:56:53.081Z,22.07
2019-01-12T17:59:56.658Z,22.09
2019-01-12T18:03:01.289Z,22.12
2019-01-12T18:06:04.882Z,22.13
2019-01-12T18:09:09.415Z,22.13
2019-01-12T18:12:12.906Z,22.13
2019-01-12T18:15:16.437Z,22.15
2019-01-12T18:18:19.909Z,22.15
2019-01-12T18:21:23.412Z,22.17
2019-01-12T18:24:26.905Z,22.18
2019-01-12T18:27:30.405Z,22.21
2019-01-12T18:30:33.951Z,22.20
2019-01-12T18:33:37.432Z,22.23
2019-01-12T18:36:40.913Z,22.22
2019-01-12T18:39:45.441Z,22.26
2019-01-12T18:42:49.964Z,22.29
2019-01-12T18:45:53.463Z,22.28
2019-01-12T18:48:56.988Z,22.32
2019-01-12T18:52:01.553Z,22.32
2019-01-12T18:55:05.251Z,22.36
2019-01-12T18:58:08.697Z,22.37
2019-01-12T19:01:12.209Z,22.37
2019-01-12T19:04:16.737Z,22.38
2019-01-12T19:07:20.221Z,22.38
2019-01-12T19:10:23.878Z,22.38
2019-01-12T19:13:27.442Z,22.42
2019-01-12T19:16:30.926Z,22.42
2019-01-12T19:19:35.466Z,22.46
2019-01-12T19:22:38.892Z,22.46
2019-01-12T19:25:42.484Z,22.48
2019-01-12T19:28:46.034Z,22.48
2019-01-12T19:31:49.665Z,22.48
2019-01-12T19:34:53.165Z,22.47
2019-01-12T19:38:02.610Z,22.49
2019-01-12T19:41:06.115Z,22.50
2019-01-12T19:44:09.610Z,22.52
2019-01-12T19:47:13.205Z,22.53
2019-01-12T19:50:18.888Z,22.54
2019-01-12T19:53:23.394Z,22.53
2019-01-12T19:56:27.001Z,22.53
2019-01-12T19:59:30.447Z,22.58
2019-01-12T20:02:34.911Z,22.55
2019-01-12T20:05:38.418Z,22.58
2019-01-12T20:08:43.024Z,22.58
2019-01-12T20:11:46.634Z,22.58
2019-01-12T20:14:50.216Z,22.61
2019-01-12T20:17:53.849Z,22.62
2019-01-12T20:20:57.363Z,22.63
2019-01-12T20:24:00.912Z,22.62
2019-01-12T20:27:04.557Z,22.63
2019-01-12T20:30:13.918Z,22.69
2019-01-12T20:33:23.851Z,22.67
2019-01-12T20:37:00.353Z,22.68
2019-01-12T20:40:22.661Z,22.68
2019-01-12T20:43:54.343Z,22.69
2019-01-12T20:47:09.144Z,22.72
2019-01-12T20:50:38.605Z,22.70
2019-01-12T20:54:19.702Z,22.73
2019-01-12T20:57:41.782Z,22.72
2019-01-12T21:01:25.910Z,22.73
2019-01-12T21:05:25.289Z,22.74
2019-01-12T21:09:05.960Z,22.76
2019-01-12T21:12:50.005Z,22.76
2019-01-12T21:16:01.342Z,22.76
2019-01-12T21:19:04.914Z,22.78
2019-01-12T21:22:09.423Z,22.78
2019-01-12T21:25:14.987Z,22.78
2019-01-12T21:28:18.476Z,22.80
2019-01-12T21:31:24.146Z,22.81
2019-01-12T21:34:27.844Z,22.81
2019-01-12T21:37:31.447Z,22.82
2019-01-12T21:40:35.976Z,22.80
2019-01-12T21:43:39.456Z,22.82
2019-01-12T21:46:42.976Z,22.81
2019-01-12T21:49:48.564Z,22.81
2019-01-12T21:52:52.308Z,22.82
2019-01-12T21:55:56.949Z,22.85
2019-01-12T21:59:02.518Z,22.85
2019-01-12T22:02:06.130Z,22.85
2019-01-12T22:05:10.055Z,22.85
2019-01-12T22:08:13.601Z,22.86
2019-01-12T22:11:17.236Z,22.90
2019-01-12T22:14:20.860Z,22.90
2019-01-12T22:17:24.356Z,22.88
2019-01-12T22:20:27.844Z,22.82
2019-01-12T22:23:33.032Z,22.78
2019-01-12T22:26:36.664Z,22.73
2019-01-12T22:29:40.160Z,22.68
2019-01-12T22:32:43.715Z,22.63
2019-01-12T22:35:48.196Z,22.59
2019-01-12T22:38:51.676Z,22.57
2019-01-12T22:41:55.123Z,22.52
2019-01-12T22:44:58.589Z,22.45
2019-01-12T22:48:02.127Z,22.40
2019-01-12T22:51:06.749Z,22.37
2019-01-12T22:54:12.257Z,22.35
2019-01-12T22:57:16.800Z,22.26
2019-01-12T23:00:31.341Z,22.22
2019-01-12T23:03:34.883Z,22.21
2019-01-12T23:06:38.370Z,22.15
2019-01-12T23:09:43.890Z,22.09
2019-01-12T23:12:47.412Z,22.02
2019-01-12T23:15:50.905Z,21.98
2019-01-12T23:18:54.393Z,21.95
2019-01-12T23:21:58.924Z,21.91
2019-01-12T23:25:02.441Z,21.90
2019-01-12T23:28:05.919Z,21.85
2019-01-12T23:31:09.443Z,21.80
2019-01-12T23:34:12.949Z,21.79
2019-01-12T23:37:16.381Z,21.74
2019-01-12T23:40:19.873Z,21.72
2019-01-12T23:43:23.438Z,21.70
2019-01-12T23:46:26.937Z,21.67
2019-01-12T23:49:30.438Z,21.62
2019-01-12T23:52:33.969Z,21.61
2019-01-12T23:55:37.435Z,21.55
2019-01-12T23:58:40.922Z,21.53
